Portada
METAR-TAF:

METAR-TAF

Aeroports :

Tajima, Japó

latitud: 35-31N, longitud: 134-48E, altitud: 210 m

Observació

L'informe es va fer fa 7 hores i 48 minuts, a les 09:00 UTC
Vent 6 kt del Sud/Sud-Oest
Temperatura 10°C
Humitat 82%
Pressió 1013 hPa
Visibilitat 10 km o més
sense núvols per sota de 1500 mi sense presència de cumulonimbus.

METAR: RJBT 110900Z 21006KT CAVOK 10/07 Q1013

Hora: 01:48 (16:48 UTC)


TAF: manca

Observacions i pronòstics meteorològics de més de 4000 aeroports (METAR i TAF).

Les estacions disponibles són els punts grocs i vermells al mapa.

Posi el ratolí al punt desitjat per veure el nom de l'estació.

Feu clic per veure les observacions i els pronòstics meteorològics.

Per canviar el mapa: feu clic els botons verds amb una creu de color negre per apropar; al botó verd amb un guió per allunyar la imatge; o en les fletxes verdes per a mapes adjacents.


METAR-TAF: